Time;durP1;ratioP1;P1;durP2;ratioP2;P2;SDS_P1;SDS_P2;PMS_P1;PMS_P2;Temp;Humidity;BMP_temperature;BMP_pressure;BME280_temperature;BME280_humidity;BME280_pressure;Samples;Min_cycle;Max_cycle;Signal;HPM_P1;HPM_P2
2021/12/05 01:15:47;;;;;;;35.10;13.30;;;;;;;0.89;71.03;97156.53;419927;1306;3482595;-41
2021/12/05 01:26:01;;;;;;;20.90;10.50;;;;;;;1.19;70.57;97152.11;422756;1306;108928;-43
2021/12/05 01:36:15;;;;;;;28.40;13.50;;;;;;;1.36;70.51;97143.23;422471;1305;99311;-39
2021/12/05 02:49:09;;;;;;;26.70;12.40;;;;;;;1.43;68.08;97118.13;422548;1306;99183;-40
2021/12/05 03:09:28;;;;;;;39.90;17.60;;;;;;;0.91;70.06;97125.86;422152;1307;99380;-41
2021/12/05 03:19:35;;;;;;;25.70;13.40;;;;;;;0.70;71.02;97118.44;422535;1310;112463;-40
2021/12/05 03:29:43;;;;;;;27.00;13.30;;;;;;;0.57;72.24;97125.34;422005;1305;109632;-41
2021/12/05 03:39:50;;;;;;;24.50;12.90;;;;;;;0.58;72.63;97126.10;422312;1307;99551;-40
2021/12/05 03:49:57;;;;;;;29.20;13.70;;;;;;;0.45;74.41;97125.11;422605;1307;108958;-40
2021/12/05 04:00:08;;;;;;;26.20;12.60;;;;;;;0.32;74.91;97132.83;422574;1310;99366;-42
2021/12/05 04:10:16;;;;;;;25.70;12.60;;;;;;;0.33;75.40;97127.94;422574;1305;112442;-40
2021/12/05 04:20:26;;;;;;;24.10;13.00;;;;;;;0.33;75.72;97117.30;422517;1307;109036;-40
2021/12/05 04:30:34;;;;;;;17.60;11.00;;;;;;;0.35;76.12;97108.81;422712;1307;99932;-40
2021/12/05 04:50:49;;;;;;;19.50;11.50;;;;;;;0.31;77.42;97126.63;422425;1305;99283;-40
2021/12/05 05:00:58;;;;;;;22.40;13.30;;;;;;;0.34;77.09;97131.21;422282;1307;112356;-40
2021/12/05 05:11:09;;;;;;;31.40;14.10;;;;;;;0.35;77.37;97134.86;422652;1307;109462;-40
2021/12/05 05:52:15;;;;;;;22.90;12.70;;;;;;;0.23;78.18;97153.48;422209;1307;99957;-40
2021/12/05 06:12:48;;;;;;;21.60;14.50;;;;;;;0.36;78.51;97162.41;422279;1307;108978;-40
2021/12/05 06:22:57;;;;;;;32.60;14.80;;;;;;;0.40;78.83;97173.88;422383;1307;99288;-39
2021/12/05 06:54:00;;;;;;;19.70;13.00;;;;;;;0.30;79.73;97195.41;421379;1314;112537;-40
2021/12/05 07:45:18;;;;;;;54.60;28.30;;;;;;;0.73;80.12;97233.23;422502;1305;112604;-40
2021/12/05 08:16:06;;;;;;;44.80;27.30;;;;;;;0.88;80.28;97233.28;422555;1305;112632;-39
2021/12/05 08:26:18;;;;;;;41.90;26.20;;;;;;;0.92;80.39;97235.44;422014;1306;108985;-40
2021/12/05 08:36:56;;;;;;;42.20;25.30;;;;;;;1.02;80.58;97242.77;422482;1305;99316;-40
2021/12/05 10:51:34;;;;;;;58.20;29.60;;;;;;;2.35;79.40;97273.14;422046;1305;99331;-41
2021/12/05 11:01:43;;;;;;;63.00;35.90;;;;;;;2.28;79.47;97284.73;422319;1305;111501;-42
2021/12/05 11:11:51;;;;;;;70.70;40.10;;;;;;;2.07;79.48;97293.92;422222;1305;108919;-40
2021/12/05 11:21:57;;;;;;;80.10;41.90;;;;;;;1.99;79.52;97295.69;421958;1305;99302;-41
2021/12/05 11:32:06;;;;;;;60.80;36.70;;;;;;;1.90;79.52;97309.64;421851;1308;98923;-41
2021/12/05 11:42:15;;;;;;;69.20;38.40;;;;;;;1.96;79.74;97319.41;422312;1308;106365;-41
2021/12/05 11:52:23;;;;;;;65.60;35.30;;;;;;;2.08;79.86;97341.08;422534;1308;99310;-40
2021/12/05 12:02:34;;;;;;;72.70;37.00;;;;;;;2.08;79.88;97334.47;421962;1308;112513;-41
2021/12/05 12:12:43;;;;;;;71.70;37.20;;;;;;;2.03;79.99;97337.79;422178;1308;108905;-39
2021/12/05 12:22:51;;;;;;;71.40;39.80;;;;;;;1.97;79.79;97342.78;422621;1308;99313;-41
2021/12/05 12:33:01;;;;;;;78.20;36.20;;;;;;;1.83;79.85;97340.73;422357;1308;112511;-41
2021/12/05 12:43:10;;;;;;;57.20;32.90;;;;;;;1.85;79.94;97341.30;422493;1308;109582;-40
2021/12/05 12:53:15;;;;;;;;;;;;;;;2.00;80.22;97334.55;422270;1308;99282;-40
2021/12/05 13:13:44;;;;;;;98.40;43.30;;;;;;;2.09;80.19;97333.62;422310;1308;99317;-40
2021/12/05 13:23:53;;;;;;;83.30;41.70;;;;;;;2.05;80.25;97332.55;422595;1308;112439;-41
2021/12/05 13:34:30;;;;;;;64.40;33.70;;;;;;;1.94;80.44;97336.38;422441;1308;108910;-39
2021/12/05 13:45:07;;;;;;;56.60;32.70;;;;;;;1.95;80.35;97344.08;422414;1308;99112;-41
2021/12/05 14:05:49;;;;;;;53.40;26.90;;;;;;;2.12;80.60;97369.08;422453;1307;108963;-40
2021/12/05 14:15:57;;;;;;;77.30;37.90;;;;;;;2.17;80.49;97375.45;422368;1308;99332;-41
2021/12/05 14:26:13;;;;;;;88.30;41.80;;;;;;;2.05;80.65;97384.94;422296;1308;112492;-40
2021/12/05 14:36:22;;;;;;;109.10;52.30;;;;;;;1.92;80.81;97386.88;422509;1308;109270;-40
2021/12/05 14:46:30;;;;;;;67.90;39.10;;;;;;;1.84;80.55;97380.42;422294;1308;98904;-40
2021/12/05 14:56:39;;;;;;;64.80;34.70;;;;;;;1.86;80.61;97392.52;422470;1308;112402;-40
2021/12/05 15:06:47;;;;;;;62.20;35.80;;;;;;;1.95;80.72;97398.77;422347;1308;109922;-40
2021/12/05 15:16:56;;;;;;;62.70;34.30;;;;;;;1.94;80.72;97405.88;422599;1306;99299;-40
2021/12/05 15:37:19;;;;;;;64.90;32.10;;;;;;;1.74;81.09;97426.73;422791;1308;108946;-39
2021/12/05 15:47:28;;;;;;;53.90;29.00;;;;;;;1.81;81.04;97436.05;422574;1306;99330;-40
2021/12/05 15:57:36;;;;;;;45.70;28.70;;;;;;;1.88;80.96;97449.27;422609;1308;113133;-43
2021/12/05 16:07:42;;;;;;;55.90;29.50;;;;;;;2.02;81.20;97446.16;422702;1308;108871;-40
2021/12/05 16:17:56;;;;;;;79.30;38.80;;;;;;;2.10;81.18;97440.16;422297;1308;98422;-41
2021/12/05 16:28:06;;;;;;;85.30;44.80;;;;;;;2.14;81.28;97430.46;422516;1308;108941;-41
2021/12/05 16:38:23;;;;;;;93.60;43.80;;;;;;;2.02;81.24;97432.80;422607;1307;99567;-41
2021/12/05 16:48:30;;;;;;;92.50;44.40;;;;;;;1.95;81.24;97444.23;422414;1308;112440;-40
2021/12/05 16:58:39;;;;;;;87.50;46.10;;;;;;;1.95;81.32;97468.89;422646;1308;108816;-41
2021/12/05 17:08:47;;;;;;;93.20;48.60;;;;;;;2.00;81.47;97492.18;422000;1308;99301;-40
2021/12/05 17:29:02;;;;;;;124.30;58.60;;;;;;;2.04;81.85;97501.79;422636;1307;99307;-41
2021/12/05 17:39:08;;;;;;;133.00;56.40;;;;;;;1.97;81.72;97517.20;422359;1307;111531;-40
2021/12/05 17:49:17;;;;;;;125.20;57.90;;;;;;;1.77;81.77;97525.35;422508;1308;108882;-41
2021/12/05 18:09:32;;;;;;;109.20;48.30;;;;;;;1.95;81.90;97509.55;422411;1308;112496;-41
2021/12/05 18:29:47;;;;;;;121.00;55.70;;;;;;;2.20;82.07;97511.24;422615;1308;98070;-40
2021/12/05 18:40:00;;;;;;;99.00;44.10;;;;;;;2.16;82.15;97538.54;422415;1306;108925;-41
2021/12/05 18:50:04;;;;;;;122.40;53.90;;;;;;;2.07;82.07;97555.17;422712;1307;99328;-41
2021/12/05 19:00:24;;;;;;;72.50;37.00;;;;;;;2.00;82.01;97562.05;422550;1306;113220;-40
2021/12/05 19:20:51;;;;;;;62.60;33.30;;;;;;;2.05;82.00;97577.56;422681;1306;98079;-42
2021/12/05 19:30:59;;;;;;;62.30;34.90;;;;;;;2.10;82.29;97576.19;422408;1306;108948;-41
2021/12/05 19:41:07;;;;;;;94.70;46.50;;;;;;;2.13;82.42;97583.08;422750;1306;99361;-40
2021/12/05 19:51:17;;;;;;;61.40;30.00;;;;;;;2.07;82.54;97582.05;422459;1307;112938;-42
2021/12/05 20:01:24;;;;;;;68.40;34.70;;;;;;;1.98;82.59;97586.00;422564;1306;108861;-41
2021/12/05 20:11:32;;;;;;;48.10;28.10;;;;;;;1.94;82.33;97588.00;422306;1307;99443;-41
2021/12/05 20:21:43;;;;;;;54.40;28.90;;;;;;;2.04;82.49;97584.54;422752;1306;109084;-41
2021/12/05 20:31:50;;;;;;;43.40;20.90;;;;;;;2.27;82.61;97579.31;422704;1306;99277;-41
2021/12/05 20:41:57;;;;;;;66.60;30.10;;;;;;;2.40;82.61;97586.87;422530;1305;111721;-40
2021/12/05 20:52:02;;;;;;;131.00;53.10;;;;;;;2.34;82.55;97593.48;422488;1306;107836;-43
2021/12/05 21:02:11;;;;;;;93.90;35.60;;;;;;;2.19;82.53;97590.60;422552;1305;99921;-42
2021/12/05 21:12:19;;;;;;;54.80;29.30;;;;;;;2.07;82.42;97594.77;422554;1305;112866;-41
2021/12/05 21:22:29;;;;;;;50.80;28.10;;;;;;;2.11;82.50;97589.77;422282;1305;108878;-41
2021/12/05 21:32:39;;;;;;;58.90;32.50;;;;;;;2.25;82.66;97581.52;422521;1305;99283;-42
2021/12/05 21:42:47;;;;;;;71.60;33.80;;;;;;;2.39;82.76;97584.41;422311;1305;108853;-41
2021/12/05 21:52:57;;;;;;;84.90;41.30;;;;;;;2.29;82.40;97573.66;422736;1305;99411;-41
2021/12/05 22:03:07;;;;;;;97.20;47.80;;;;;;;2.12;82.72;97575.60;422595;1305;111479;-41
2021/12/05 22:13:15;;;;;;;53.70;28.60;;;;;;;2.08;82.79;97589.11;422515;1306;109034;-41
2021/12/05 22:23:25;;;;;;;38.80;19.50;;;;;;;2.11;82.65;97589.07;422325;1305;99292;-44
2021/12/05 22:33:33;;;;;;;36.20;20.40;;;;;;;2.13;82.55;97585.64;422389;1306;112439;-41
2021/12/05 22:43:41;;;;;;;32.00;18.10;;;;;;;2.08;82.64;97585.75;422511;1305;108784;-42
2021/12/05 23:03:59;;;;;;;32.80;16.80;;;;;;;1.87;82.85;97589.76;422496;1306;109010;-42
2021/12/05 23:14:08;;;;;;;28.30;14.90;;;;;;;1.71;82.89;97589.47;422353;1308;99322;-41
2021/12/05 23:24:20;;;;;;;21.90;12.90;;;;;;;1.66;82.85;97589.14;422591;1305;112415;-41
2021/12/05 23:34:28;;;;;;;28.20;16.10;;;;;;;1.71;82.94;97602.70;422661;1306;108901;-42
2021/12/05 23:54:42;;;;;;;35.50;17.00;;;;;;;1.52;82.98;97621.09;422628;1305;108898;-41
